Shingleton, Michigan
Current Conditions -  °F | °C
As of 9:34 PM on Tuesday 21 Oct 2014 (Local Time) from KISQ Reporting Station
Clear Clear  
Wind Chill: 31°   Ceiling: Unl
Heat Index: 31°   Visibility: 10mi
Dew Point: 29°   Wind: 3mph
Humidity: 91%   Direction: 360°N
Pressure: 30.3"   Gusts: NA
Location:  46.35°N, 86.47°W
Report Text: KISQ 220134Z AUTO 36003KT 10SM CLR 00/M02 A3030 RMK AO2 T10031016
Loading
Personal Weather Stations






























Interactive Weather Map New forecast layout! Learn more

10-Day Weather Forecast

Advertisements
Track Severe Weather on mobile